createdAt,value
2017-06-04T00:00:11.096Z,17.90
2017-06-04T00:02:37.662Z,17.80
2017-06-04T00:05:04.141Z,17.80
2017-06-04T00:07:30.721Z,17.80
2017-06-04T00:09:57.296Z,17.80
2017-06-04T00:12:24.778Z,18.00
2017-06-04T00:14:51.333Z,18.00
2017-06-04T00:17:17.889Z,17.90
2017-06-04T00:19:44.632Z,17.90
2017-06-04T00:22:11.222Z,17.70
2017-06-04T00:24:38.586Z,17.80
2017-06-04T00:27:05.200Z,17.70
2017-06-04T00:29:31.760Z,17.60
2017-06-04T00:31:58.370Z,17.50
2017-06-04T00:34:25.779Z,17.40
2017-06-04T00:36:52.356Z,17.70
2017-06-04T00:39:18.949Z,17.40
2017-06-04T00:41:45.512Z,17.40
2017-06-04T00:44:12.149Z,17.30
2017-06-04T00:46:38.756Z,17.30
2017-06-04T00:49:05.352Z,17.20
2017-06-04T00:51:31.932Z,17.20
2017-06-04T00:53:58.493Z,17.20
2017-06-04T00:56:25.049Z,17.30
2017-06-04T00:58:51.607Z,17.30
2017-06-04T01:01:18.183Z,17.20
2017-06-04T01:03:44.948Z,17.10
2017-06-04T01:06:11.536Z,17.10
2017-06-04T01:08:38.868Z,17.10
2017-06-04T01:11:05.434Z,17.10
2017-06-04T01:13:32.042Z,17.00
2017-06-04T01:15:58.626Z,16.80
2017-06-04T01:18:25.128Z,16.80
2017-06-04T01:20:52.396Z,17.00
2017-06-04T01:23:18.840Z,17.00
2017-06-04T01:25:45.501Z,16.90
2017-06-04T01:28:12.095Z,16.90
2017-06-04T01:30:39.477Z,16.90
2017-06-04T01:33:06.052Z,16.90
2017-06-04T01:35:32.624Z,17.00
2017-06-04T01:37:59.265Z,17.00
2017-06-04T01:40:25.894Z,17.10
2017-06-04T01:42:52.500Z,17.00
2017-06-04T01:45:19.860Z,17.00
2017-06-04T01:47:46.486Z,17.00
2017-06-04T01:50:13.190Z,17.00
2017-06-04T01:52:39.817Z,16.90
2017-06-04T01:55:06.413Z,16.80
2017-06-04T01:57:33.009Z,16.70
2017-06-04T01:59:59.657Z,16.80
2017-06-04T02:02:26.233Z,16.90
2017-06-04T02:04:53.485Z,17.00
2017-06-04T02:07:20.085Z,17.00
2017-06-04T02:09:46.658Z,16.40
2017-06-04T02:12:13.248Z,16.90
2017-06-04T02:14:39.825Z,16.80
2017-06-04T02:17:06.440Z,16.60
2017-06-04T02:19:32.953Z,16.70
2017-06-04T02:21:59.562Z,16.80
2017-06-04T02:24:26.164Z,16.80
2017-06-04T02:26:52.742Z,16.90
2017-06-04T02:29:19.348Z,16.90
2017-06-04T02:31:45.954Z,16.80
2017-06-04T02:34:12.402Z,16.90
2017-06-04T02:36:38.897Z,16.90
2017-06-04T02:39:05.518Z,16.90
2017-06-04T02:41:32.213Z,16.80
2017-06-04T02:43:58.803Z,16.80
2017-06-04T02:46:25.970Z,16.90
2017-06-04T02:48:54.024Z,16.90
2017-06-04T02:51:20.576Z,16.90
2017-06-04T02:53:47.153Z,16.80
2017-06-04T02:56:13.735Z,16.70
2017-06-04T02:58:40.257Z,16.80
2017-06-04T03:01:06.697Z,16.80
2017-06-04T03:03:33.271Z,16.90
2017-06-04T03:05:59.878Z,16.70
2017-06-04T03:08:26.448Z,16.60
2017-06-04T03:10:53.086Z,16.70
2017-06-04T03:13:19.657Z,16.80
2017-06-04T03:15:46.084Z,16.80
2017-06-04T03:18:12.591Z,16.90
2017-06-04T03:20:39.909Z,16.70
2017-06-04T03:23:06.527Z,16.70
2017-06-04T03:25:33.836Z,16.60
2017-06-04T03:28:02.079Z,16.60
2017-06-04T03:30:28.699Z,16.30
2017-06-04T03:32:55.391Z,16.40
2017-06-04T03:35:22.011Z,16.50
2017-06-04T03:37:48.696Z,16.40
2017-06-04T03:40:15.273Z,16.40
2017-06-04T03:42:42.689Z,16.40
2017-06-04T03:45:09.164Z,16.40
2017-06-04T03:47:35.784Z,16.50
2017-06-04T03:50:02.709Z,16.60
2017-06-04T03:52:29.300Z,16.50
2017-06-04T03:54:55.856Z,16.50
2017-06-04T03:57:23.586Z,16.40
2017-06-04T03:59:50.183Z,16.40
2017-06-04T04:02:16.788Z,16.30
2017-06-04T04:04:43.367Z,16.50
2017-06-04T04:07:09.928Z,16.50
2017-06-04T04:09:36.524Z,16.50
2017-06-04T04:12:03.111Z,16.50
2017-06-04T04:14:29.682Z,16.70
2017-06-04T04:16:56.156Z,16.70
2017-06-04T04:19:22.756Z,16.70
2017-06-04T04:21:49.953Z,16.90
2017-06-04T04:24:17.140Z,16.50
2017-06-04T04:26:43.704Z,16.80
2017-06-04T04:29:10.288Z,16.80
2017-06-04T04:31:36.933Z,16.90
2017-06-04T04:34:03.445Z,17.00
2017-06-04T04:36:30.458Z,16.90
2017-06-04T04:38:57.792Z,16.90
2017-06-04T04:41:25.138Z,17.00
2017-06-04T04:43:51.855Z,16.90
2017-06-04T04:46:18.609Z,17.10
2017-06-04T04:48:45.296Z,16.90
2017-06-04T04:51:11.880Z,17.00
2017-06-04T04:53:38.500Z,16.90
2017-06-04T04:56:05.094Z,16.90
2017-06-04T04:58:32.406Z,17.00
2017-06-04T05:00:58.985Z,17.00
2017-06-04T05:03:25.549Z,17.00
2017-06-04T05:05:52.123Z,17.00
2017-06-04T05:08:19.133Z,17.00
2017-06-04T05:10:46.465Z,17.00
2017-06-04T05:13:13.024Z,17.00
2017-06-04T05:15:40.323Z,17.20
2017-06-04T05:18:06.880Z,17.20
2017-06-04T05:20:33.481Z,17.10
2017-06-04T05:23:00.016Z,17.00
2017-06-04T05:25:30.577Z,17.10
2017-06-04T05:27:57.200Z,17.10
2017-06-04T05:30:23.768Z,17.30
2017-06-04T05:32:50.388Z,17.20
2017-06-04T05:35:16.961Z,17.20
2017-06-04T05:37:43.517Z,17.10
2017-06-04T05:40:10.104Z,17.30
2017-06-04T05:42:36.693Z,17.30
2017-06-04T05:45:03.276Z,17.20
2017-06-04T05:47:30.584Z,17.30
2017-06-04T05:49:57.198Z,17.30
2017-06-04T05:52:23.768Z,17.40
2017-06-04T05:54:50.786Z,17.40
2017-06-04T05:57:17.495Z,17.40
2017-06-04T05:59:43.961Z,17.50
2017-06-04T06:02:10.773Z,17.30
2017-06-04T06:04:38.082Z,17.40
2017-06-04T06:07:04.682Z,17.40
2017-06-04T06:09:31.258Z,17.20
2017-06-04T06:11:57.822Z,17.40
2017-06-04T06:14:24.368Z,17.50
2017-06-04T06:16:50.925Z,17.50
2017-06-04T06:19:18.250Z,17.50
2017-06-04T06:21:45.252Z,17.50
2017-06-04T06:24:11.819Z,17.40
2017-06-04T06:26:38.368Z,17.50
2017-06-04T06:29:04.950Z,17.50
2017-06-04T06:31:31.544Z,17.70
2017-06-04T06:33:58.788Z,17.60
2017-06-04T06:36:26.124Z,17.60
2017-06-04T06:38:52.714Z,17.60
2017-06-04T06:41:20.044Z,17.60
2017-06-04T06:43:46.706Z,17.60
2017-06-04T06:46:14.121Z,17.80
2017-06-04T06:48:40.701Z,17.80
2017-06-04T06:51:07.309Z,17.70
2017-06-04T06:53:35.029Z,17.70
2017-06-04T06:56:01.560Z,17.80
2017-06-04T06:58:28.885Z,17.80
2017-06-04T07:00:55.509Z,17.80
2017-06-04T07:03:22.128Z,17.70
2017-06-04T07:05:48.647Z,17.80
2017-06-04T07:08:15.216Z,17.80
2017-06-04T07:10:41.785Z,18.00
2017-06-04T07:13:08.443Z,18.00
2017-06-04T07:15:35.018Z,17.80
2017-06-04T07:18:01.632Z,17.70
2017-06-04T07:20:28.214Z,17.80
2017-06-04T07:22:55.512Z,17.80
2017-06-04T07:25:22.080Z,17.80
2017-06-04T07:27:48.692Z,17.80
2017-06-04T07:30:15.208Z,18.00
2017-06-04T07:32:41.768Z,18.00
2017-06-04T07:35:08.945Z,18.10
2017-06-04T07:37:36.277Z,18.00
2017-06-04T07:40:04.132Z,18.00
2017-06-04T07:42:47.441Z,17.90
2017-06-04T07:45:14.029Z,18.00
2017-06-04T07:47:40.652Z,18.20
2017-06-04T07:50:07.206Z,18.10
2017-06-04T07:52:33.853Z,18.20
2017-06-04T07:55:00.920Z,18.40
2017-06-04T07:57:27.486Z,18.40
2017-06-04T07:59:54.065Z,18.70
2017-06-04T08:02:20.800Z,18.50
2017-06-04T08:04:47.423Z,18.40
2017-06-04T08:07:14.185Z,18.40
2017-06-04T08:09:41.163Z,18.50
2017-06-04T08:12:08.063Z,18.70
2017-06-04T08:14:38.188Z,18.80
2017-06-04T08:17:05.758Z,18.90
2017-06-04T08:19:41.075Z,18.90
2017-06-04T08:22:12.608Z,18.80
2017-06-04T08:24:39.051Z,19.50
2017-06-04T08:27:06.847Z,19.60
2017-06-04T08:29:33.457Z,21.10
2017-06-04T08:32:00.061Z,22.50
2017-06-04T08:34:26.691Z,23.50
2017-06-04T08:36:53.252Z,25.20
2017-06-04T08:39:19.712Z,26.80
2017-06-04T08:41:46.299Z,27.60
2017-06-04T08:44:12.901Z,27.70
2017-06-04T08:46:40.189Z,27.50
2017-06-04T08:49:07.496Z,27.30
2017-06-04T08:51:33.988Z,27.30
2017-06-04T08:54:00.652Z,26.40
2017-06-04T08:56:27.221Z,25.40
2017-06-04T08:58:53.788Z,24.20
2017-06-04T09:01:20.397Z,23.20
2017-06-04T09:03:46.991Z,22.60
2017-06-04T09:06:13.523Z,21.80
2017-06-04T09:08:40.113Z,21.50
2017-06-04T09:11:06.699Z,21.20
2017-06-04T09:13:34.032Z,20.50
2017-06-04T09:16:03.117Z,20.10
2017-06-04T09:18:29.584Z,20.10
2017-06-04T09:20:56.189Z,19.90
2017-06-04T09:23:23.533Z,19.90
2017-06-04T09:25:50.229Z,19.90
2017-06-04T09:28:16.869Z,19.90
2017-06-04T09:30:43.460Z,20.00
2017-06-04T09:33:10.040Z,20.00
2017-06-04T09:35:36.692Z,20.20
2017-06-04T09:38:03.357Z,20.30
2017-06-04T09:40:29.972Z,20.30
2017-06-04T09:42:56.589Z,20.30
2017-06-04T09:45:24.462Z,20.10
2017-06-04T09:47:51.063Z,20.20
2017-06-04T09:50:17.617Z,20.30
2017-06-04T09:52:44.234Z,20.40
2017-06-04T09:55:10.867Z,20.30
2017-06-04T09:57:37.417Z,20.10
2017-06-04T10:00:04.481Z,19.90
2017-06-04T10:02:31.052Z,19.90
2017-06-04T10:04:57.637Z,19.80
2017-06-04T10:07:24.117Z,19.70
2017-06-04T10:09:50.574Z,19.60
2017-06-04T10:12:17.182Z,19.60
2017-06-04T10:14:43.762Z,19.50
2017-06-04T10:17:10.363Z,19.50
2017-06-04T10:19:37.035Z,19.20
2017-06-04T10:22:04.280Z,20.00
2017-06-04T10:24:30.977Z,20.00
2017-06-04T10:26:58.677Z,20.10
2017-06-04T10:29:25.240Z,20.10
2017-06-04T10:31:51.829Z,20.10
2017-06-04T10:34:18.461Z,20.20
2017-06-04T10:36:46.172Z,20.10
2017-06-04T10:39:12.664Z,20.00
2017-06-04T10:41:39.176Z,20.10
2017-06-04T10:44:07.250Z,20.10
2017-06-04T10:46:34.627Z,20.00
2017-06-04T10:49:01.414Z,20.00
2017-06-04T10:51:28.171Z,20.00
2017-06-04T10:53:54.864Z,20.10
2017-06-04T10:56:21.405Z,20.20
2017-06-04T10:58:47.982Z,20.30
2017-06-04T11:01:14.581Z,20.50
2017-06-04T11:03:42.720Z,20.50
2017-06-04T11:06:10.028Z,20.30
2017-06-04T11:08:37.141Z,20.30
2017-06-04T11:11:03.763Z,20.10
2017-06-04T11:13:30.417Z,20.10
2017-06-04T11:15:57.045Z,19.90
2017-06-04T11:18:24.353Z,20.00
2017-06-04T11:20:50.936Z,19.90
2017-06-04T11:23:18.253Z,19.90
2017-06-04T11:25:44.798Z,19.90
2017-06-04T11:28:11.437Z,19.90
2017-06-04T11:30:38.632Z,19.80
2017-06-04T11:33:10.270Z,19.90
2017-06-04T11:35:37.286Z,19.90
2017-06-04T11:38:04.500Z,19.60
2017-06-04T11:40:31.003Z,19.70
2017-06-04T11:42:57.620Z,19.70
2017-06-04T11:45:24.161Z,19.60
2017-06-04T11:47:51.464Z,19.60
2017-06-04T11:50:18.657Z,19.50
2017-06-04T11:52:45.236Z,19.50
2017-06-04T11:55:11.993Z,19.60
2017-06-04T11:57:38.696Z,19.70
2017-06-04T12:00:05.323Z,19.70
2017-06-04T12:02:32.656Z,20.10
2017-06-04T12:05:00.014Z,20.30
2017-06-04T12:07:26.682Z,20.20
2017-06-04T12:09:53.257Z,20.30
2017-06-04T12:12:20.816Z,20.00
2017-06-04T12:14:47.327Z,20.10
2017-06-04T12:17:14.324Z,20.10
2017-06-04T12:19:40.900Z,20.00
2017-06-04T12:22:07.521Z,20.00
2017-06-04T12:24:34.085Z,20.00
2017-06-04T12:27:00.644Z,20.10
2017-06-04T12:29:27.209Z,20.30
2017-06-04T12:31:53.814Z,20.30
2017-06-04T12:34:20.409Z,20.10
2017-06-04T12:36:47.025Z,20.20
2017-06-04T12:39:13.606Z,20.20
2017-06-04T12:41:40.166Z,20.30
2017-06-04T12:44:06.788Z,20.30
2017-06-04T12:46:34.532Z,20.30
2017-06-04T12:49:01.843Z,20.00
2017-06-04T12:51:28.408Z,20.10
2017-06-04T12:53:55.727Z,20.20
2017-06-04T12:56:22.361Z,20.10
2017-06-04T12:58:49.013Z,20.30
2017-06-04T13:01:15.584Z,20.10
2017-06-04T13:03:42.190Z,20.40
2017-06-04T13:06:08.782Z,20.60
2017-06-04T13:08:35.234Z,20.60
2017-06-04T13:11:01.851Z,20.70
2017-06-04T13:13:29.147Z,20.80
2017-06-04T13:15:55.752Z,20.80
2017-06-04T13:18:22.738Z,20.60
2017-06-04T13:20:49.325Z,20.30
2017-06-04T13:23:15.960Z,20.50
2017-06-04T13:25:42.581Z,20.50
2017-06-04T13:28:09.194Z,20.50
2017-06-04T13:30:35.620Z,20.60
2017-06-04T13:33:02.248Z,20.60
2017-06-04T13:35:28.829Z,20.30
2017-06-04T13:37:56.262Z,20.00
2017-06-04T13:40:22.951Z,20.20
2017-06-04T13:42:49.595Z,20.00
2017-06-04T13:45:16.350Z,19.70
2017-06-04T13:47:43.658Z,19.60
2017-06-04T13:50:10.208Z,19.60
2017-06-04T13:52:36.826Z,19.50
2017-06-04T13:55:04.125Z,19.60
2017-06-04T13:57:30.980Z,19.60
2017-06-04T13:59:57.620Z,19.80
2017-06-04T14:02:24.188Z,19.90
2017-06-04T14:04:50.775Z,19.90
2017-06-04T14:07:17.261Z,19.90
2017-06-04T14:09:43.921Z,19.80
2017-06-04T14:12:11.336Z,19.80
2017-06-04T14:14:37.949Z,19.80
2017-06-04T14:17:04.600Z,19.90
2017-06-04T14:19:46.201Z,19.80
2017-06-04T14:22:12.769Z,19.90
2017-06-04T14:24:40.122Z,19.90
2017-06-04T14:27:07.044Z,20.00
2017-06-04T14:29:34.251Z,20.40
2017-06-04T14:32:01.588Z,20.30
2017-06-04T14:34:28.154Z,20.30
2017-06-04T14:36:54.724Z,20.40
2017-06-04T14:39:21.345Z,20.40
2017-06-04T14:41:48.028Z,20.50
2017-06-04T14:44:14.866Z,20.30
2017-06-04T14:46:41.372Z,20.10
2017-06-04T14:49:13.832Z,19.70
2017-06-04T14:51:40.452Z,19.50
2017-06-04T14:54:07.043Z,19.40
2017-06-04T14:56:33.569Z,19.50
2017-06-04T14:59:00.205Z,19.50
2017-06-04T15:01:31.284Z,19.40
2017-06-04T15:03:58.006Z,19.20
2017-06-04T15:06:24.721Z,19.20
2017-06-04T15:08:51.281Z,19.10
2017-06-04T15:11:18.838Z,19.10
2017-06-04T15:13:45.658Z,19.10
2017-06-04T15:16:16.618Z,18.90
2017-06-04T15:18:43.277Z,19.10
2017-06-04T15:21:09.886Z,19.20
2017-06-04T15:23:36.493Z,19.20
2017-06-04T15:26:03.095Z,19.20
2017-06-04T15:28:29.685Z,19.30
2017-06-04T15:30:56.308Z,19.20
2017-06-04T15:33:26.469Z,19.20
2017-06-04T15:35:53.133Z,19.30
2017-06-04T15:38:20.349Z,19.50
2017-06-04T15:40:47.687Z,19.50
2017-06-04T15:43:15.154Z,19.60
2017-06-04T15:45:42.405Z,19.60
2017-06-04T15:48:11.563Z,19.50
2017-06-04T15:50:45.030Z,19.60
2017-06-04T15:53:11.614Z,19.70
2017-06-04T15:55:39.743Z,19.70
2017-06-04T15:58:06.539Z,19.50
2017-06-04T16:00:33.984Z,19.50
2017-06-04T16:03:00.633Z,19.50
2017-06-04T16:05:31.340Z,19.60
2017-06-04T16:07:58.296Z,19.60
2017-06-04T16:10:24.932Z,19.70
2017-06-04T16:12:51.583Z,19.60
2017-06-04T16:15:18.208Z,19.30
2017-06-04T16:17:44.828Z,19.60
2017-06-04T16:20:11.437Z,19.60
2017-06-04T16:22:42.457Z,19.50
2017-06-04T16:25:09.496Z,19.50
2017-06-04T16:27:36.088Z,19.40
2017-06-04T16:30:02.700Z,19.30
2017-06-04T16:32:29.280Z,19.40
2017-06-04T16:34:55.881Z,19.50
2017-06-04T16:37:22.436Z,19.20
2017-06-04T16:39:52.333Z,19.20
2017-06-04T16:42:18.993Z,19.30
2017-06-04T16:44:45.541Z,19.20
2017-06-04T16:47:12.181Z,19.30
2017-06-04T16:49:38.761Z,19.40
2017-06-04T16:52:05.342Z,19.30
2017-06-04T16:54:31.928Z,19.40
2017-06-04T16:56:58.528Z,19.50
2017-06-04T16:59:25.110Z,19.60
2017-06-04T17:01:52.101Z,19.50
2017-06-04T17:04:18.600Z,19.30
2017-06-04T17:06:45.172Z,19.50
2017-06-04T17:09:11.778Z,19.30
2017-06-04T17:11:38.346Z,19.30
2017-06-04T17:14:04.805Z,19.50
2017-06-04T17:16:31.352Z,19.50
2017-06-04T17:18:57.941Z,19.50
2017-06-04T17:21:24.424Z,19.30
2017-06-04T17:23:51.040Z,19.20
2017-06-04T17:26:17.652Z,19.00
2017-06-04T17:28:44.991Z,19.10
2017-06-04T17:31:11.573Z,19.10
2017-06-04T17:33:38.164Z,19.20
2017-06-04T17:36:04.721Z,19.30
2017-06-04T17:38:32.023Z,19.40
2017-06-04T17:40:58.568Z,19.40
2017-06-04T17:43:25.100Z,19.30
2017-06-04T17:45:51.689Z,19.00
2017-06-04T17:48:18.294Z,19.50
2017-06-04T17:50:45.618Z,19.30
2017-06-04T17:53:12.244Z,19.30
2017-06-04T17:55:38.728Z,19.00
2017-06-04T17:58:05.310Z,18.90
2017-06-04T18:00:36.280Z,18.90
2017-06-04T18:03:02.893Z,18.80
2017-06-04T18:05:29.470Z,18.70
2017-06-04T18:07:56.131Z,18.50
2017-06-04T18:10:22.697Z,18.30
2017-06-04T18:12:49.313Z,18.30
2017-06-04T18:15:16.653Z,18.70
2017-06-04T18:17:43.228Z,18.70
2017-06-04T18:20:09.801Z,18.60
2017-06-04T18:22:36.384Z,18.50
2017-06-04T18:25:03.676Z,18.60
2017-06-04T18:27:30.265Z,18.60
2017-06-04T18:29:56.835Z,18.90
2017-06-04T18:32:23.332Z,18.90
2017-06-04T18:34:50.084Z,19.10
2017-06-04T18:37:17.325Z,18.70
2017-06-04T18:39:43.792Z,18.70
2017-06-04T18:42:10.302Z,18.70
2017-06-04T18:44:36.846Z,18.80
2017-06-04T18:47:03.405Z,18.90
2017-06-04T18:49:29.993Z,18.80
2017-06-04T18:51:56.646Z,18.70
2017-06-04T18:54:23.300Z,18.70
2017-06-04T18:56:49.869Z,18.70
2017-06-04T18:59:17.197Z,18.40
2017-06-04T19:01:43.760Z,18.40
2017-06-04T19:04:10.541Z,18.40
2017-06-04T19:06:41.811Z,18.30
2017-06-04T19:09:08.513Z,18.50
2017-06-04T19:11:35.116Z,18.60
2017-06-04T19:14:01.696Z,18.80
2017-06-04T19:16:28.377Z,18.90
2017-06-04T19:18:55.052Z,18.80
2017-06-04T19:21:21.649Z,18.70
2017-06-04T19:23:51.129Z,18.60
2017-06-04T19:26:17.629Z,18.50
2017-06-04T19:28:44.186Z,18.40
2017-06-04T19:31:10.770Z,18.10
2017-06-04T19:33:38.129Z,18.40
2017-06-04T19:36:04.721Z,18.10
2017-06-04T19:38:48.533Z,18.40
2017-06-04T19:41:16.081Z,18.30
2017-06-04T19:43:42.906Z,18.20
2017-06-04T19:46:15.837Z,18.30
2017-06-04T19:48:43.144Z,18.10
2017-06-04T19:51:09.741Z,18.10
2017-06-04T19:53:37.048Z,17.90
2017-06-04T19:56:03.677Z,17.90
2017-06-04T19:58:30.301Z,17.80
2017-06-04T20:00:56.920Z,17.80
2017-06-04T20:03:23.505Z,17.90
2017-06-04T20:05:50.281Z,17.90
2017-06-04T20:08:17.377Z,17.90
2017-06-04T20:10:44.104Z,17.90
2017-06-04T20:13:10.977Z,17.90
2017-06-04T20:15:37.701Z,17.80
2017-06-04T20:18:04.175Z,17.70
2017-06-04T20:20:30.833Z,17.80
2017-06-04T20:22:57.273Z,17.70
2017-06-04T20:25:23.933Z,17.40
2017-06-04T20:27:50.676Z,17.40
2017-06-04T20:30:17.265Z,17.30
2017-06-04T20:32:43.801Z,17.30
2017-06-04T20:35:10.940Z,17.30
2017-06-04T20:37:37.719Z,17.40
2017-06-04T20:40:04.326Z,17.20
2017-06-04T20:42:30.929Z,17.30
2017-06-04T20:44:57.637Z,17.20
2017-06-04T20:47:24.739Z,17.20
2017-06-04T20:49:51.870Z,17.10
2017-06-04T20:52:18.413Z,16.90
2017-06-04T20:54:45.113Z,16.70
2017-06-04T20:57:11.709Z,16.40
2017-06-04T20:59:38.263Z,16.40
2017-06-04T21:02:04.815Z,16.30
2017-06-04T21:04:31.580Z,16.20
2017-06-04T21:06:58.209Z,16.00
2017-06-04T21:09:24.798Z,15.70
2017-06-04T21:11:51.404Z,15.70
2017-06-04T21:14:18.181Z,15.60
2017-06-04T21:16:44.677Z,15.30
2017-06-04T21:19:11.278Z,15.40
2017-06-04T21:21:37.888Z,15.30
2017-06-04T21:24:04.464Z,15.30
2017-06-04T21:26:30.985Z,15.30
2017-06-04T21:28:57.637Z,15.20
2017-06-04T21:31:24.229Z,15.40
2017-06-04T21:33:50.695Z,14.90
2017-06-04T21:36:17.333Z,14.90
2017-06-04T21:38:43.899Z,14.60
2017-06-04T21:41:10.509Z,14.50
2017-06-04T21:43:36.958Z,14.40
2017-06-04T21:46:03.615Z,14.40
2017-06-04T21:48:30.229Z,14.30
2017-06-04T21:50:56.860Z,14.30
2017-06-04T21:53:23.454Z,14.30
2017-06-04T21:55:50.029Z,14.30
2017-06-04T21:58:16.593Z,14.60
2017-06-04T22:00:43.236Z,14.10
2017-06-04T22:03:10.061Z,14.10
2017-06-04T22:05:36.648Z,14.00
2017-06-04T22:08:03.102Z,13.90
2017-06-04T22:10:29.745Z,13.90
2017-06-04T22:12:56.317Z,13.80
2017-06-04T22:15:22.947Z,13.70
2017-06-04T22:17:50.325Z,13.60
2017-06-04T22:20:16.924Z,13.60
2017-06-04T22:22:44.125Z,13.60
2017-06-04T22:25:10.490Z,13.50
2017-06-04T22:27:36.878Z,13.50
2017-06-04T22:30:03.973Z,13.60
2017-06-04T22:32:30.345Z,13.60
2017-06-04T22:34:57.440Z,13.80
2017-06-04T22:37:23.841Z,13.70
2017-06-04T22:39:50.180Z,13.80
2017-06-04T22:42:16.527Z,13.90
2017-06-04T22:44:42.869Z,13.80
2017-06-04T22:47:09.197Z,13.90
2017-06-04T22:49:35.539Z,13.90
2017-06-04T22:52:02.017Z,13.90
2017-06-04T22:54:29.119Z,14.00
2017-06-04T22:56:55.451Z,14.00
2017-06-04T22:59:21.885Z,14.00
2017-06-04T23:01:48.358Z,14.10
2017-06-04T23:04:14.728Z,14.00
2017-06-04T23:06:41.092Z,14.00
2017-06-04T23:09:07.465Z,13.90
2017-06-04T23:11:33.830Z,13.90
2017-06-04T23:16:33.434Z,14.00
2017-06-04T23:19:07.973Z,14.00
2017-06-04T23:21:34.346Z,14.00
2017-06-04T23:24:00.718Z,14.00
2017-06-04T23:26:27.985Z,14.10
2017-06-04T23:28:54.406Z,14.00
2017-06-04T23:31:20.786Z,14.10
2017-06-04T23:33:47.260Z,14.10
2017-06-04T23:36:13.674Z,14.10
2017-06-04T23:38:40.029Z,14.10
2017-06-04T23:41:06.396Z,14.20
2017-06-04T23:43:32.786Z,14.30
2017-06-04T23:45:59.145Z,14.40
2017-06-04T23:48:25.521Z,14.40
2017-06-04T23:50:51.869Z,14.50
2017-06-04T23:53:18.988Z,14.60
2017-06-04T23:55:45.334Z,14.60
2017-06-04T23:58:12.436Z,14.70
